Lenoir Rhyne, North Carolina
Current Conditions -  °F | °C
As of 7:38 PM on Sunday 21 Dec 2014 (Local Time) from KHKY Reporting Station
Haze Haze  
Wind Chill: 42°   Ceiling: 3600
Heat Index: 44°   Visibility: 8mi
Dew Point: 37°   Wind: 5mph
Humidity: 76%   Direction: 90°E
Pressure: 30.2"   Gusts: NA
Location:  35.7628°N, 81.3219°W
Report Text: KHKY 220038Z 09004KT 8SM BR FEW020 SCT026 OVC036 07/03 A3020 RMK AO2 T00670028
Loading
Personal Weather Stations






























Interactive Weather Map New forecast layout! Learn more

10-Day Weather Forecast

Advertisements
Track Severe Weather on mobile